Condor Express — WDG7544 — position and weather

sailwx.info

Track history (hours):
 
Tides and Currents Weather Stations Pressure Air Temp Water Temp Dewpoint Dewpoint Depression Visibility Wind Speed Wind Dir Waves Ship Positions

Condor Express

Owner: H & M Landing Inc, Santa Barbara, CA. More information available from US FCC via Universal Licensing System and Coast Guard Vessel Documentation Center.

Last reported at 2017-Oct-16 22:02 UTC. Time now 2017-Oct-17 02:18 UTC.
Position N 34°24' W 119°42'.

Type: Ship. MMSI: 367568350.

Date/timePositionNaut miles runAvg speedWind from/ knotsBaromVisibWave heightAir tempDewpointWater temp
2017-Oct-16 22:02N 34°24' W 119°42'0 0.0
2017-Oct-16 18:23N 34°24' W 119°42'0 0.0
2017-Oct-16 12:26N 34°24' W 119°42'0 0.0
2017-Oct-16 09:47N 34°24' W 119°42'0 0.0
2017-Oct-16 04:59N 34°24' W 119°42'0 0.0
2017-Oct-16 04:26N 34°24' W 119°42'0 0.0
2017-Oct-16 03:59N 34°24' W 119°42'0 0.0
2017-Oct-16 00:44N 34°24' W 119°42'0 0.0
2017-Oct-15 22:22N 34°24' W 119°42'0 0.5
2017-Oct-15 22:00N 34°24' W 119°42'0 0.4
2017-Oct-15 21:30N 34°24' W 119°42'1517.8
2017-Oct-15 20:39N 34°16' W 119°57'320.9
2017-Oct-15 20:30N 34°14' W 120°00'1 1.1
2017-Oct-15 19:59N 34°14' W 120°00'2 3.5
2017-Oct-15 19:29N 34°13' W 119°58'4 4.3
2017-Oct-15 18:40N 34°16' W 119°58'1 1.5
2017-Oct-15 18:19N 34°17' W 119°58'4 9.2
2017-Oct-15 17:53N 34°19' W 119°54'719.3
2017-Oct-15 17:30N 34°22' W 119°46'5 3.7
2017-Oct-15 16:14N 34°24' W 119°42'0 0.0
2017-Oct-15 15:47N 34°24' W 119°42'0 0.0
2017-Oct-15 15:17N 34°24' W 119°42'0 0.0
2017-Oct-15 13:56N 34°24' W 119°42'0 0.0
2017-Oct-15 11:02N 34°24' W 119°42'0 0.0
2017-Oct-15 09:50N 34°24' W 119°42'0 0.0
2017-Oct-15 05:35N 34°24' W 119°42'0 0.0
2017-Oct-15 05:20N 34°24' W 119°42'0 0.0
2017-Oct-15 04:50N 34°24' W 119°42'0 0.0
2017-Oct-15 04:26N 34°24' W 119°42'0 0.6
2017-Oct-15 04:00N 34°24' W 119°41'1 1.2
2017-Oct-15 03:18N 34°24' W 119°41'1 0.6
2017-Oct-15 02:12N 34°24' W 119°41'0 0.1
2017-Oct-14 23:45N 34°24' W 119°42'0 0.0
2017-Oct-14 22:45N 34°24' W 119°42'0 0.0
2017-Oct-14 22:15N 34°24' W 119°42'0 0.0
2017-Oct-14 21:51N 34°24' W 119°42'1 0.7
2017-Oct-14 21:08N 34°24' W 119°41'2 9.6
2017-Oct-14 20:55N 34°24' W 119°43'714.8
2017-Oct-14 20:26N 34°24' W 119°52'4 9.3
2017-Oct-14 19:58N 34°20' W 119°55'2 5.0
2017-Oct-14 19:30N 34°18' W 119°54'3 6.8
2017-Oct-14 19:00N 34°20' W 119°51'1 2.2
2017-Oct-14 18:29N 34°21' W 119°51'1 1.7
2017-Oct-14 17:58N 34°21' W 119°50'714.1
2017-Oct-14 17:30N 34°23' W 119°42'2 3.2
2017-Oct-14 17:00N 34°24' W 119°42'0 0.0
2017-Oct-14 16:12N 34°24' W 119°42'0 0.0
2017-Oct-14 15:57N 34°24' W 119°42'0 0.0
2017-Oct-14 15:27N 34°24' W 119°42'0 0.0
2017-Oct-14 13:54N 34°24' W 119°42'0 0.0
2017-Oct-14 10:48N 34°24' W 119°42'0 0.0
2017-Oct-14 10:15N 34°24' W 119°42'0 0.0
2017-Oct-14 09:15N 34°24' W 119°41'0 0.2
2017-Oct-14 08:57N 34°24' W 119°42'0 0.0
2017-Oct-14 08:09N 34°24' W 119°42'0 0.0
2017-Oct-14 07:57N 34°24' W 119°42'0 0.0
2017-Oct-14 06:12N 34°24' W 119°42'0 0.0
2017-Oct-14 05:24N 34°24' W 119°42'0 0.0
2017-Oct-14 04:51N 34°24' W 119°42'0 0.0
2017-Oct-14 03:50N 34°24' W 119°42'1 2.0
2017-Oct-14 03:30N 34°24' W 119°41'0 0.4
2017-Oct-14 02:56N 34°24' W 119°41'0 0.8
2017-Oct-14 02:30N 34°24' W 119°41'1 0.3
2017-Oct-13 23:10N 34°24' W 119°42'0 0.0
2017-Oct-13 22:56N 34°24' W 119°42'613.7
2017-Oct-13 22:30N 34°21' W 119°48'4 7.5
2017-Oct-13 21:58N 34°20' W 119°52'1 2.8
2017-Oct-13 21:29N 34°19' W 119°51'2 2.8
2017-Oct-13 20:48N 34°20' W 119°48'311.4
2017-Oct-13 20:30N 34°21' W 119°44'4 2.3
2017-Oct-13 18:38N 34°24' W 119°42'0 0.0
2017-Oct-13 17:05N 34°24' W 119°42'0 0.0
2017-Oct-13 16:59N 34°24' W 119°42'0 0.0
2017-Oct-13 16:29N 34°24' W 119°42'0 0.0
2017-Oct-13 12:11N 34°24' W 119°42'0 0.0
2017-Oct-13 11:59N 34°24' W 119°42'0 0.0
2017-Oct-13 10:38N 34°24' W 119°42'0 0.0
2017-Oct-13 10:20N 34°24' W 119°42'0 0.0
2017-Oct-13 09:53N 34°24' W 119°42'0 0.0
2017-Oct-13 09:26N 34°24' W 119°42'0 0.0
2017-Oct-13 08:56N 34°24' W 119°42'0 0.0
2017-Oct-13 08:29N 34°24' W 119°42'0 0.0
2017-Oct-13 07:38N 34°24' W 119°42'0 0.0
2017-Oct-13 07:11N 34°24' W 119°42'0 0.0
2017-Oct-13 06:59N 34°24' W 119°42'0 0.0
2017-Oct-13 04:41N 34°24' W 119°42'0 0.4
2017-Oct-13 03:27N 34°24' W 119°41'1 1.6
2017-Oct-13 02:57N 34°24' W 119°40'2 3.1
2017-Oct-13 02:27N 34°23' W 119°42'0 0.9
2017-Oct-13 01:53N 34°23' W 119°43'2 4.4
2017-Oct-13 01:29N 34°24' W 119°41'0 0.1
2017-Oct-12 21:12N 34°24' W 119°42'3 8.8
2017-Oct-12 20:49N 34°22' W 119°39'4 9.2
2017-Oct-12 20:25N 34°20' W 119°43'614.3
2017-Oct-12 20:00N 34°20' W 119°50'1 1.6
2017-Oct-12 19:30N 34°20' W 119°51'1 2.7
2017-Oct-12 18:58N 34°19' W 119°53'1 3.0
2017-Oct-12 18:30N 34°20' W 119°51'2 3.0
2017-Oct-12 18:00N 34°20' W 119°50'5 9.1
2017-Oct-12 17:28N 34°23' W 119°44'3 3.2
2017-Oct-12 16:33N 34°24' W 119°42'0 0.0
2017-Oct-12 16:12N 34°24' W 119°42'0 0.0
2017-Oct-12 10:36N 34°24' W 119°42'0 0.0
2017-Oct-12 10:30N 34°24' W 119°42'0 0.0
2017-Oct-12 08:33N 34°24' W 119°42'0 0.0
2017-Oct-12 07:30N 34°24' W 119°42'0 0.0
2017-Oct-12 06:57N 34°24' W 119°42'0 0.0
2017-Oct-12 06:27N 34°24' W 119°42'0 0.0
2017-Oct-12 05:54N 34°24' W 119°42'0 0.0
2017-Oct-12 05:27N 34°24' W 119°42'0 0.0
2017-Oct-12 04:54N 34°24' W 119°42'0 0.0
2017-Oct-12 04:15N 34°24' W 119°42'0 0.0
2017-Oct-12 02:57N 34°24' W 119°42'0 0.0
2017-Oct-12 01:54N 34°24' W 119°42'0 0.0
2017-Oct-12 01:30N 34°24' W 119°42'4 1.0
2017-Oct-11 20:53N 34°22' W 119°46'614.7
2017-Oct-11 20:26N 34°19' W 119°53'3 5.6
2017-Oct-11 19:50N 34°18' W 119°57'4 9.2
2017-Oct-11 19:26N 34°21' W 119°55'1 2.8
2017-Oct-11 18:57N 34°20' W 119°53'2 2.1
2017-Oct-11 18:07N 34°21' W 119°51'0 3.2
2017-Oct-11 18:00N 34°21' W 119°51'812.2
2017-Oct-11 17:23N 34°23' W 119°42'2 0.1
2017-Oct-10 23:27N 34°24' W 119°42'0 0.0
2017-Oct-10 22:51N 34°24' W 119°42'0 0.0
2017-Oct-10 22:24N 34°24' W 119°42'0 0.0
2017-Oct-10 21:51N 34°24' W 119°42'0 0.0
2017-Oct-10 21:09N 34°24' W 119°42'0 0.0
2017-Oct-10 20:21N 34°24' W 119°42'0 0.0
2017-Oct-10 19:15N 34°24' W 119°42'0 0.0
2017-Oct-10 18:45N 34°24' W 119°42'0 0.0
2017-Oct-10 17:15N 34°24' W 119°42'0 0.0
2017-Oct-10 17:00N 34°24' W 119°42'0 0.0
2017-Oct-10 16:30N 34°24' W 119°42'0 0.0
2017-Oct-10 12:24N 34°24' W 119°42'0 0.0
2017-Oct-10 10:24N 34°24' W 119°42'0 0.0
2017-Oct-10 07:48N 34°24' W 119°42'0 0.0
2017-Oct-10 05:57N 34°24' W 119°42'0 0.0
2017-Oct-10 02:57N 34°24' W 119°42'0 0.0
2017-Oct-10 02:03N 34°24' W 119°42'0 0.0
2017-Oct-10 00:48N 34°24' W 119°42'0 0.0
2017-Oct-09 19:57N 34°24' W 119°42'0 0.0
2017-Oct-09 17:42N 34°24' W 119°42'0 0.0
2017-Oct-09 17:30N 34°24' W 119°42'0 0.0
2017-Oct-09 16:27N 34°24' W 119°42'0 0.0
2017-Oct-09 14:42N 34°24' W 119°42'0 0.0
2017-Oct-09 14:30N 34°24' W 119°42'0 0.0
2017-Oct-09 10:09N 34°24' W 119°42'0 0.0
2017-Oct-09 09:12N 34°24' W 119°42'0 0.0
2017-Oct-09 09:00N 34°24' W 119°42'0 0.0
2017-Oct-09 04:13N 34°24' W 119°42'0 0.0
2017-Oct-09 03:43N 34°24' W 119°42'0 0.0
2017-Oct-09 03:15N 34°24' W 119°42'0 0.0
2017-Oct-09 01:24N 34°24' W 119°42'0 0.0
2017-Oct-09 00:39N 34°24' W 119°42'0 0.0
2017-Oct-09 00:24N 34°24' W 119°42'5 1.6
2017-Oct-08 21:12N 34°23' W 119°48'619.3
2017-Oct-08 20:54N 34°22' W 119°54'1 2.0
2017-Oct-08 20:29N 34°21' W 119°54'1 1.5
2017-Oct-08 19:56N 34°21' W 119°53'2 3.4
2017-Oct-08 19:24N 34°20' W 119°51'1 2.2
2017-Oct-08 19:00N 34°19' W 119°52'2 3.9
2017-Oct-08 18:30N 34°21' W 119°53'5 9.2
2017-Oct-08 17:57N 34°20' W 119°47'4 8.0
2017-Oct-08 17:30N 34°20' W 119°43'5 8.2
2017-Oct-08 16:56N 34°24' W 119°42'0 0.0
2017-Oct-08 15:56N 34°24' W 119°42'0 0.0
2017-Oct-08 13:17N 34°24' W 119°42'0 0.0
2017-Oct-08 12:59N 34°24' W 119°42'0 0.0
2017-Oct-08 11:26N 34°24' W 119°42'0 0.0
2017-Oct-08 10:59N 34°24' W 119°42'0 0.0
2017-Oct-08 10:29N 34°24' W 119°42'0 0.0
2017-Oct-08 09:56N 34°24' W 119°42'0 0.0
2017-Oct-08 08:44N 34°24' W 119°42'0 0.0
2017-Oct-08 08:26N 34°24' W 119°42'0 0.0
2017-Oct-08 07:59N 34°24' W 119°42'0 0.0
2017-Oct-08 07:29N 34°24' W 119°42'0 0.0
2017-Oct-08 06:59N 34°24' W 119°42'1 0.2
2017-Oct-08 03:11N 34°24' W 119°41'0 0.5
2017-Oct-08 02:18N 34°24' W 119°41'1 2.0
2017-Oct-08 01:57N 34°24' W 119°41'0 0.9
2017-Oct-08 01:27N 34°24' W 119°42'0 0.0
2017-Oct-08 00:57N 34°24' W 119°42'0 0.0
2017-Oct-08 00:24N 34°24' W 119°42'0 0.0
2017-Oct-07 23:48N 34°24' W 119°42'0 0.0
2017-Oct-07 23:27N 34°24' W 119°42'0 0.0
2017-Oct-07 23:00N 34°24' W 119°42'0 0.0
2017-Oct-07 21:35N 34°24' W 119°41'1614.3
2017-Oct-07 20:29N 34°09' W 119°46'6 3.6
2017-Oct-07 18:49N 34°14' W 119°49'1 2.3
2017-Oct-07 18:13N 34°15' W 119°48'11 2.0
2017-Oct-07 12:49N 34°24' W 119°42'0 0.0
2017-Oct-07 10:16N 34°24' W 119°42'0 0.0
2017-Oct-07 09:58N 34°24' W 119°42'0 0.0
2017-Oct-07 05:49N 34°24' W 119°42'0 0.0
2017-Oct-07 05:25N 34°24' W 119°42'0 0.0
2017-Oct-07 04:37N 34°24' W 119°42'0 0.0
2017-Oct-07 04:25N 34°24' W 119°42'0 0.0
2017-Oct-07 02:19N 34°24' W 119°42'0 0.0
2017-Oct-07 01:58N 34°24' W 119°42'  
Track history (hours):
 
Tides and Currents Weather Stations Pressure Air Temp Water Temp Dewpoint Dewpoint Depression Visibility Wind Speed Wind Dir Waves Ship Positions

Condor Express

Owner: H & M Landing Inc, Santa Barbara, CA. More information available from US FCC via Universal Licensing System and Coast Guard Vessel Documentation Center.

Last reported at 2017-Oct-16 22:02 UTC. Time now 2017-Oct-17 02:18 UTC.
Position N 34°24' W 119°42'.

Type: Ship. MMSI: 367568350.

Date/timePositionNaut miles runAvg speedWind from/ knotsBaromVisibWave heightAir tempDewpointWater temp
2017-Oct-16 22:02N 34°24' W 119°42'0 0.0
2017-Oct-16 18:23N 34°24' W 119°42'0 0.0
2017-Oct-16 12:26N 34°24' W 119°42'0 0.0
2017-Oct-16 09:47N 34°24' W 119°42'0 0.0
2017-Oct-16 04:59N 34°24' W 119°42'0 0.0
2017-Oct-16 04:26N 34°24' W 119°42'0 0.0
2017-Oct-16 03:59N 34°24' W 119°42'0 0.0
2017-Oct-16 00:44N 34°24' W 119°42'0 0.0
2017-Oct-15 22:22N 34°24' W 119°42'0 0.5
2017-Oct-15 22:00N 34°24' W 119°42'0 0.4
2017-Oct-15 21:30N 34°24' W 119°42'1517.8
2017-Oct-15 20:39N 34°16' W 119°57'320.9
2017-Oct-15 20:30N 34°14' W 120°00'1 1.1
2017-Oct-15 19:59N 34°14' W 120°00'2 3.5
2017-Oct-15 19:29N 34°13' W 119°58'4 4.3
2017-Oct-15 18:40N 34°16' W 119°58'1 1.5
2017-Oct-15 18:19N 34°17' W 119°58'4 9.2
2017-Oct-15 17:53N 34°19' W 119°54'719.3
2017-Oct-15 17:30N 34°22' W 119°46'5 3.7
2017-Oct-15 16:14N 34°24' W 119°42'0 0.0
2017-Oct-15 15:47N 34°24' W 119°42'0 0.0
2017-Oct-15 15:17N 34°24' W 119°42'0 0.0
2017-Oct-15 13:56N 34°24' W 119°42'0 0.0
2017-Oct-15 11:02N 34°24' W 119°42'0 0.0
2017-Oct-15 09:50N 34°24' W 119°42'0 0.0
2017-Oct-15 05:35N 34°24' W 119°42'0 0.0
2017-Oct-15 05:20N 34°24' W 119°42'0 0.0
2017-Oct-15 04:50N 34°24' W 119°42'0 0.0
2017-Oct-15 04:26N 34°24' W 119°42'0 0.6
2017-Oct-15 04:00N 34°24' W 119°41'1 1.2
2017-Oct-15 03:18N 34°24' W 119°41'1 0.6
2017-Oct-15 02:12N 34°24' W 119°41'0 0.1
2017-Oct-14 23:45N 34°24' W 119°42'0 0.0
2017-Oct-14 22:45N 34°24' W 119°42'0 0.0
2017-Oct-14 22:15N 34°24' W 119°42'0 0.0
2017-Oct-14 21:51N 34°24' W 119°42'1 0.7
2017-Oct-14 21:08N 34°24' W 119°41'2 9.6
2017-Oct-14 20:55N 34°24' W 119°43'714.8
2017-Oct-14 20:26N 34°24' W 119°52'4 9.3
2017-Oct-14 19:58N 34°20' W 119°55'2 5.0
2017-Oct-14 19:30N 34°18' W 119°54'3 6.8
2017-Oct-14 19:00N 34°20' W 119°51'1 2.2
2017-Oct-14 18:29N 34°21' W 119°51'1 1.7
2017-Oct-14 17:58N 34°21' W 119°50'714.1
2017-Oct-14 17:30N 34°23' W 119°42'2 3.2
2017-Oct-14 17:00N 34°24' W 119°42'0 0.0
2017-Oct-14 16:12N 34°24' W 119°42'0 0.0
2017-Oct-14 15:57N 34°24' W 119°42'0 0.0
2017-Oct-14 15:27N 34°24' W 119°42'0 0.0
2017-Oct-14 13:54N 34°24' W 119°42'0 0.0
2017-Oct-14 10:48N 34°24' W 119°42'0 0.0
2017-Oct-14 10:15N 34°24' W 119°42'0 0.0
2017-Oct-14 09:15N 34°24' W 119°41'0 0.2
2017-Oct-14 08:57N 34°24' W 119°42'0 0.0
2017-Oct-14 08:09N 34°24' W 119°42'0 0.0
2017-Oct-14 07:57N 34°24' W 119°42'0 0.0
2017-Oct-14 06:12N 34°24' W 119°42'0 0.0
2017-Oct-14 05:24N 34°24' W 119°42'0 0.0
2017-Oct-14 04:51N 34°24' W 119°42'0 0.0
2017-Oct-14 03:50N 34°24' W 119°42'1 2.0
2017-Oct-14 03:30N 34°24' W 119°41'0 0.4
2017-Oct-14 02:56N 34°24' W 119°41'0 0.8
2017-Oct-14 02:30N 34°24' W 119°41'1 0.3
2017-Oct-13 23:10N 34°24' W 119°42'0 0.0
2017-Oct-13 22:56N 34°24' W 119°42'613.7
2017-Oct-13 22:30N 34°21' W 119°48'4 7.5
2017-Oct-13 21:58N 34°20' W 119°52'1 2.8
2017-Oct-13 21:29N 34°19' W 119°51'2 2.8
2017-Oct-13 20:48N 34°20' W 119°48'311.4
2017-Oct-13 20:30N 34°21' W 119°44'4 2.3
2017-Oct-13 18:38N 34°24' W 119°42'0 0.0
2017-Oct-13 17:05N 34°24' W 119°42'0 0.0
2017-Oct-13 16:59N 34°24' W 119°42'0 0.0
2017-Oct-13 16:29N 34°24' W 119°42'0 0.0
2017-Oct-13 12:11N 34°24' W 119°42'0 0.0
2017-Oct-13 11:59N 34°24' W 119°42'0 0.0
2017-Oct-13 10:38N 34°24' W 119°42'0 0.0
2017-Oct-13 10:20N 34°24' W 119°42'0 0.0
2017-Oct-13 09:53N 34°24' W 119°42'0 0.0
2017-Oct-13 09:26N 34°24' W 119°42'0 0.0
2017-Oct-13 08:56N 34°24' W 119°42'0 0.0
2017-Oct-13 08:29N 34°24' W 119°42'0 0.0
2017-Oct-13 07:38N 34°24' W 119°42'0 0.0
2017-Oct-13 07:11N 34°24' W 119°42'0 0.0
2017-Oct-13 06:59N 34°24' W 119°42'0 0.0
2017-Oct-13 04:41N 34°24' W 119°42'0 0.4
2017-Oct-13 03:27N 34°24' W 119°41'1 1.6
2017-Oct-13 02:57N 34°24' W 119°40'2 3.1
2017-Oct-13 02:27N 34°23' W 119°42'0 0.9
2017-Oct-13 01:53N 34°23' W 119°43'2 4.4
2017-Oct-13 01:29N 34°24' W 119°41'0 0.1
2017-Oct-12 21:12N 34°24' W 119°42'3 8.8
2017-Oct-12 20:49N 34°22' W 119°39'4 9.2
2017-Oct-12 20:25N 34°20' W 119°43'614.3
2017-Oct-12 20:00N 34°20' W 119°50'1 1.6
2017-Oct-12 19:30N 34°20' W 119°51'1 2.7
2017-Oct-12 18:58N 34°19' W 119°53'1 3.0
2017-Oct-12 18:30N 34°20' W 119°51'2 3.0
2017-Oct-12 18:00N 34°20' W 119°50'5 9.1
2017-Oct-12 17:28N 34°23' W 119°44'3 3.2
2017-Oct-12 16:33N 34°24' W 119°42'0 0.0
2017-Oct-12 16:12N 34°24' W 119°42'0 0.0
2017-Oct-12 10:36N 34°24' W 119°42'0 0.0
2017-Oct-12 10:30N 34°24' W 119°42'0 0.0
2017-Oct-12 08:33N 34°24' W 119°42'0 0.0
2017-Oct-12 07:30N 34°24' W 119°42'0 0.0
2017-Oct-12 06:57N 34°24' W 119°42'0 0.0
2017-Oct-12 06:27N 34°24' W 119°42'0 0.0
2017-Oct-12 05:54N 34°24' W 119°42'0 0.0
2017-Oct-12 05:27N 34°24' W 119°42'0 0.0
2017-Oct-12 04:54N 34°24' W 119°42'0 0.0
2017-Oct-12 04:15N 34°24' W 119°42'0 0.0
2017-Oct-12 02:57N 34°24' W 119°42'0 0.0
2017-Oct-12 01:54N 34°24' W 119°42'0 0.0
2017-Oct-12 01:30N 34°24' W 119°42'4 1.0
2017-Oct-11 20:53N 34°22' W 119°46'614.7
2017-Oct-11 20:26N 34°19' W 119°53'3 5.6
2017-Oct-11 19:50N 34°18' W 119°57'4 9.2
2017-Oct-11 19:26N 34°21' W 119°55'1 2.8
2017-Oct-11 18:57N 34°20' W 119°53'2 2.1
2017-Oct-11 18:07N 34°21' W 119°51'0 3.2
2017-Oct-11 18:00N 34°21' W 119°51'812.2
2017-Oct-11 17:23N 34°23' W 119°42'2 0.1
2017-Oct-10 23:27N 34°24' W 119°42'0 0.0
2017-Oct-10 22:51N 34°24' W 119°42'0 0.0
2017-Oct-10 22:24N 34°24' W 119°42'0 0.0
2017-Oct-10 21:51N 34°24' W 119°42'0 0.0
2017-Oct-10 21:09N 34°24' W 119°42'0 0.0
2017-Oct-10 20:21N 34°24' W 119°42'0 0.0
2017-Oct-10 19:15N 34°24' W 119°42'0 0.0
2017-Oct-10 18:45N 34°24' W 119°42'0 0.0
2017-Oct-10 17:15N 34°24' W 119°42'0 0.0
2017-Oct-10 17:00N 34°24' W 119°42'0 0.0
2017-Oct-10 16:30N 34°24' W 119°42'0 0.0
2017-Oct-10 12:24N 34°24' W 119°42'0 0.0
2017-Oct-10 10:24N 34°24' W 119°42'0 0.0
2017-Oct-10 07:48N 34°24' W 119°42'0 0.0
2017-Oct-10 05:57N 34°24' W 119°42'0 0.0
2017-Oct-10 02:57N 34°24' W 119°42'0 0.0
2017-Oct-10 02:03N 34°24' W 119°42'0 0.0
2017-Oct-10 00:48N 34°24' W 119°42'0 0.0
2017-Oct-09 19:57N 34°24' W 119°42'0 0.0
2017-Oct-09 17:42N 34°24' W 119°42'0 0.0
2017-Oct-09 17:30N 34°24' W 119°42'0 0.0
2017-Oct-09 16:27N 34°24' W 119°42'0 0.0
2017-Oct-09 14:42N 34°24' W 119°42'0 0.0
2017-Oct-09 14:30N 34°24' W 119°42'0 0.0
2017-Oct-09 10:09N 34°24' W 119°42'0 0.0
2017-Oct-09 09:12N 34°24' W 119°42'0 0.0
2017-Oct-09 09:00N 34°24' W 119°42'0 0.0
2017-Oct-09 04:13N 34°24' W 119°42'0 0.0
2017-Oct-09 03:43N 34°24' W 119°42'0 0.0
2017-Oct-09 03:15N 34°24' W 119°42'0 0.0
2017-Oct-09 01:24N 34°24' W 119°42'0 0.0
2017-Oct-09 00:39N 34°24' W 119°42'0 0.0
2017-Oct-09 00:24N 34°24' W 119°42'5 1.6
2017-Oct-08 21:12N 34°23' W 119°48'619.3
2017-Oct-08 20:54N 34°22' W 119°54'1 2.0
2017-Oct-08 20:29N 34°21' W 119°54'1 1.5
2017-Oct-08 19:56N 34°21' W 119°53'2 3.4
2017-Oct-08 19:24N 34°20' W 119°51'1 2.2
2017-Oct-08 19:00N 34°19' W 119°52'2 3.9
2017-Oct-08 18:30N 34°21' W 119°53'5 9.2
2017-Oct-08 17:57N 34°20' W 119°47'4 8.0
2017-Oct-08 17:30N 34°20' W 119°43'5 8.2
2017-Oct-08 16:56N 34°24' W 119°42'0 0.0
2017-Oct-08 15:56N 34°24' W 119°42'0 0.0
2017-Oct-08 13:17N 34°24' W 119°42'0 0.0
2017-Oct-08 12:59N 34°24' W 119°42'0 0.0
2017-Oct-08 11:26N 34°24' W 119°42'0 0.0
2017-Oct-08 10:59N 34°24' W 119°42'0 0.0
2017-Oct-08 10:29N 34°24' W 119°42'0 0.0
2017-Oct-08 09:56N 34°24' W 119°42'0 0.0
2017-Oct-08 08:44N 34°24' W 119°42'0 0.0
2017-Oct-08 08:26N 34°24' W 119°42'0 0.0
2017-Oct-08 07:59N 34°24' W 119°42'0 0.0
2017-Oct-08 07:29N 34°24' W 119°42'0 0.0
2017-Oct-08 06:59N 34°24' W 119°42'1 0.2
2017-Oct-08 03:11N 34°24' W 119°41'0 0.5
2017-Oct-08 02:18N 34°24' W 119°41'1 2.0
2017-Oct-08 01:57N 34°24' W 119°41'0 0.9
2017-Oct-08 01:27N 34°24' W 119°42'0 0.0
2017-Oct-08 00:57N 34°24' W 119°42'0 0.0
2017-Oct-08 00:24N 34°24' W 119°42'0 0.0
2017-Oct-07 23:48N 34°24' W 119°42'0 0.0
2017-Oct-07 23:27N 34°24' W 119°42'0 0.0
2017-Oct-07 23:00N 34°24' W 119°42'0 0.0
2017-Oct-07 21:35N 34°24' W 119°41'1614.3
2017-Oct-07 20:29N 34°09' W 119°46'6 3.6
2017-Oct-07 18:49N 34°14' W 119°49'1 2.3
2017-Oct-07 18:13N 34°15' W 119°48'11 2.0
2017-Oct-07 12:49N 34°24' W 119°42'0 0.0
2017-Oct-07 10:16N 34°24' W 119°42'0 0.0
2017-Oct-07 09:58N 34°24' W 119°42'0 0.0
2017-Oct-07 05:49N 34°24' W 119°42'0 0.0
2017-Oct-07 05:25N 34°24' W 119°42'0 0.0
2017-Oct-07 04:37N 34°24' W 119°42'0 0.0
2017-Oct-07 04:25N 34°24' W 119°42'0 0.0
2017-Oct-07 02:19N 34°24' W 119°42'0 0.0
2017-Oct-07 01:58N 34°24' W 119°42'  

Dump ship's entire track history